Time;durP1;ratioP1;P1;durP2;ratioP2;P2;SDS_P1;SDS_P2;PMS_P1;PMS_P2;Temp;Humidity;BMP_temperature;BMP_pressure;BME280_temperature;BME280_humidity;BME280_pressure;Samples;Min_cycle;Max_cycle;Signal;HPM_P1;HPM_P2
2022/04/28 00:00:30;;;;;;;;;;;;;;;15.67;62.10;100286.47;4369460;32;20013;-87
2022/04/28 00:02:58;;;;;;;;;;;;;;;15.86;61.53;100282.16;4370768;32;19971;-81
2022/04/28 00:05:25;;;;;;;;;;;;;;;15.68;62.04;100277.75;4381314;32;19982;-84
2022/04/28 00:07:52;;;;;;;;;;;;;;;15.72;61.92;100283.84;4385240;32;19982;-86
2022/04/28 00:10:19;;;;;;;;;;;;;;;15.71;61.77;100282.13;4375660;32;19989;-83
2022/04/28 00:12:46;;;;;;;;;;;;;;;15.77;61.81;100282.13;4374712;32;20006;-85
2022/04/28 00:15:12;;;;;;;;;;;;;;;15.77;61.55;100288.22;4385191;32;19974;-84
2022/04/28 00:17:39;;;;;;;;;;;;;;;15.83;61.48;100287.38;4384872;32;19990;-81
2022/04/28 00:20:07;;;;;;;;;;;;;;;15.84;61.22;100277.81;4385935;32;19982;-84
2022/04/28 00:22:34;;;;;;;;;;;;;;;15.69;61.50;100274.28;4383125;32;20097;-85
2022/04/28 00:25:01;;;;;;;;;;;;;;;15.67;61.58;100283.84;4381258;32;20009;-84
2022/04/28 00:27:29;;;;;;;;;;;;;;;15.67;61.62;100281.25;4368975;32;20328;-85
2022/04/28 00:29:56;;;;;;;;;;;;;;;15.73;61.17;100286.50;4376230;32;20679;-86
2022/04/28 00:32:24;;;;;;;;;;;;;;;15.75;61.27;100279.50;4383811;32;20348;-86
2022/04/28 00:34:50;;;;;;;;;;;;;;;15.63;61.52;100279.44;4385716;32;20003;-87
2022/04/28 00:37:18;;;;;;;;;;;;;;;15.50;61.98;100282.91;4383783;32;20839;-86
2022/04/28 00:39:45;;;;;;;;;;;;;;;15.69;61.36;100279.50;4385919;32;19970;-86
2022/04/28 00:42:13;;;;;;;;;;;;;;;15.57;61.98;100284.66;4385051;32;19991;-85
2022/04/28 00:44:40;;;;;;;;;;;;;;;15.68;61.52;100279.50;4385202;32;20039;-85
2022/04/28 00:47:08;;;;;;;;;;;;;;;15.44;61.81;100283.72;4374493;32;19986;-87
2022/04/28 00:52:21;;;;;;;;;;;;;;;15.37;62.08;100281.97;4369592;32;19987;-86
2022/04/28 00:54:49;;;;;;;;;;;;;;;15.43;61.93;100286.34;4368249;32;20825;-86
2022/04/28 00:57:16;;;;;;;;;;;;;;;15.44;61.62;100283.72;4369417;32;20003;-86
2022/04/28 00:59:43;;;;;;;;;;;;;;;15.25;62.63;100293.25;4381555;32;20026;-86
2022/04/28 01:02:10;;;;;;;;;;;;;;;15.50;61.61;100283.75;4380773;32;20013;-86
2022/04/28 01:04:38;;;;;;;;;;;;;;;15.56;61.26;100288.13;4370161;32;20395;-85
2022/04/28 01:07:06;;;;;;;;;;;;;;;15.55;61.53;100291.63;4375927;32;20033;-84
2022/04/28 01:09:37;;;;;;;;;;;;;;;15.55;61.07;100278.56;4385019;32;19971;-86
2022/04/28 01:12:05;;;;;;;;;;;;;;;15.55;61.06;100276.81;4383593;32;20033;-86
2022/04/28 01:14:33;;;;;;;;;;;;;;;15.55;61.33;100275.97;4384504;32;20303;-85
2022/04/28 01:17:01;;;;;;;;;;;;;;;15.51;61.28;100284.66;4384607;32;19983;-86
2022/04/28 01:19:29;;;;;;;;;;;;;;;15.47;61.42;100277.66;4381686;32;19978;-86
2022/04/28 01:21:56;;;;;;;;;;;;;;;15.26;62.41;100274.13;4391105;32;20001;-88
2022/04/28 01:24:23;;;;;;;;;;;;;;;15.46;61.48;100275.94;4395237;32;20331;-83
2022/04/28 01:26:51;;;;;;;;;;;;;;;15.29;61.82;100263.72;4384211;32;19978;-87
2022/04/28 01:29:19;;;;;;;;;;;;;;;15.27;61.91;100270.63;4384162;32;19985;-82
2022/04/28 01:31:45;;;;;;;;;;;;;;;15.37;61.70;100275.91;4384294;32;19979;-83
2022/04/28 01:34:12;;;;;;;;;;;;;;;15.41;61.71;100267.22;4384464;32;19986;-86
2022/04/28 01:36:41;;;;;;;;;;;;;;;15.46;61.59;100266.34;4384810;32;19986;-85
2022/04/28 01:39:08;;;;;;;;;;;;;;;15.31;62.15;100267.16;4384114;32;19978;-86
2022/04/28 01:41:36;;;;;;;;;;;;;;;15.51;61.31;100264.66;4382940;32;19990;-86
2022/04/28 01:44:03;;;;;;;;;;;;;;;15.48;61.00;100269.84;4386338;32;20899;-83
2022/04/28 01:46:30;;;;;;;;;;;;;;;15.50;61.17;100267.25;4386309;32;19997;-88
2022/04/28 01:48:58;;;;;;;;;;;;;;;15.46;60.95;100265.50;4386274;32;20028;-88
2022/04/28 01:56:58;;;;;;;;;;;;;;;15.50;60.73;100260.28;4386519;32;19989;-86
2022/04/28 01:59:26;;;;;;;;;;;;;;;15.41;61.18;100262.88;4386262;32;19982;-86
2022/04/28 02:01:53;;;;;;;;;;;;;;;15.27;61.63;100270.63;4385902;32;20630;-86
2022/04/28 02:04:21;;;;;;;;;;;;;;;15.43;61.33;100270.69;4364889;32;19995;-85
2022/04/28 02:06:49;;;;;;;;;;;;;;;15.56;60.71;100272.47;4199649;32;5002612;-85
2022/04/28 02:09:15;;;;;;;;;;;;;;;15.41;61.35;100272.41;4385734;32;19978;-87
2022/04/28 02:11:45;;;;;;;;;;;;;;;15.35;61.23;100273.28;4386228;32;20001;-85
2022/04/28 02:14:12;;;;;;;;;;;;;;;15.37;61.28;100270.69;4383709;32;20378;-89
2022/04/28 02:16:41;;;;;;;;;;;;;;;15.40;61.01;100268.09;4385935;32;20048;-89
2022/04/28 02:19:09;;;;;;;;;;;;;;;15.35;60.93;100268.94;4386691;32;19997;-88
2022/04/28 02:21:36;;;;;;;;;;;;;;;15.33;61.18;100270.66;4386322;32;19978;-84
2022/04/28 02:24:05;;;;;;;;;;;;;;;15.37;61.14;100257.63;4385481;32;20028;-87
2022/04/28 02:26:34;;;;;;;;;;;;;;;15.42;60.95;100259.41;4386077;32;19991;-87
2022/04/28 02:29:01;;;;;;;;;;;;;;;15.46;60.79;100260.28;4384707;32;19975;-85
2022/04/28 02:31:28;;;;;;;;;;;;;;;15.27;61.37;100255.00;4385834;32;19991;-82
2022/04/28 02:33:55;;;;;;;;;;;;;;;15.22;61.61;100254.13;4385899;32;20732;-86
2022/04/28 02:36:24;;;;;;;;;;;;;;;15.26;61.54;100257.63;4386104;32;20751;-85
2022/04/28 02:38:52;;;;;;;;;;;;;;;15.31;61.32;100251.53;4384460;32;19974;-85
2022/04/28 02:41:21;;;;;;;;;;;;;;;15.28;61.26;100246.31;4392059;32;19991;-87
2022/04/28 02:43:49;;;;;;;;;;;;;;;15.32;60.95;100242.84;4386551;32;20012;-86
2022/04/28 02:46:17;;;;;;;;;;;;;;;15.15;61.40;100252.34;4376792;32;20010;-82
2022/04/28 02:48:46;;;;;;;;;;;;;;;15.29;61.13;100250.66;4371621;32;20025;-84
2022/04/28 02:51:13;;;;;;;;;;;;;;;15.36;60.91;100248.94;4370537;32;20010;-84
2022/04/28 02:53:42;;;;;;;;;;;;;;;15.32;61.02;100253.28;4370421;32;19983;-85
2022/04/28 02:56:08;;;;;;;;;;;;;;;15.34;61.03;100251.53;4370875;32;19998;-81
2022/04/28 02:58:35;;;;;;;;;;;;;;;15.27;61.53;100255.00;4375329;32;20001;-86
2022/04/28 03:01:03;;;;;;;;;;;;;;;15.32;61.24;100248.06;4371842;32;19986;-87
2022/04/28 03:03:31;;;;;;;;;;;;;;;15.30;61.32;100259.34;4370386;32;19987;-86
2022/04/28 03:11:29;;;;;;;;;;;;;;;15.32;61.07;100263.72;4356740;32;20039;-85
2022/04/28 03:13:58;;;;;;;;;;;;;;;15.38;60.72;100254.16;4370080;32;20375;-85
2022/04/28 03:16:26;;;;;;;;;;;;;;;15.32;60.74;100262.84;4355452;32;20297;-85
2022/04/28 03:18:53;;;;;;;;;;;;;;;15.32;60.54;100263.72;4356762;32;19995;-82
2022/04/28 03:21:20;;;;;;;;;;;;;;;15.30;60.39;100262.81;4379552;32;20006;-86
2022/04/28 03:23:48;;;;;;;;;;;;;;;15.42;60.00;100263.75;4383822;32;20355;-86
2022/04/28 03:26:15;;;;;;;;;;;;;;;15.09;60.96;100265.34;4386076;32;19983;-84
2022/04/28 03:28:42;;;;;;;;;;;;;;;15.28;60.44;100269.78;4386486;32;20387;-86
2022/04/28 03:31:09;;;;;;;;;;;;;;;15.06;61.25;100265.31;4387930;32;19992;-82
2022/04/28 03:33:37;;;;;;;;;;;;;;;15.01;61.10;100269.66;4382922;32;19990;-85
2022/04/28 03:38:50;;;;;;;;;;;;;;;15.19;60.34;100267.16;4385730;32;19998;-85
2022/04/28 03:41:17;;;;;;;;;;;;;;;15.13;60.22;100272.34;4386368;32;20081;-87
2022/04/28 03:43:45;;;;;;;;;;;;;;;15.11;60.14;100269.72;4385458;32;19993;-86
2022/04/28 03:46:12;;;;;;;;;;;;;;;15.00;60.49;100276.62;4385268;32;19982;-85
2022/04/28 03:48:39;;;;;;;;;;;;;;;15.11;60.02;100279.28;4384855;32;19984;-81
2022/04/28 03:51:07;;;;;;;;;;;;;;;15.07;60.29;100277.53;4384841;32;20014;-86
2022/04/28 03:53:34;;;;;;;;;;;;;;;15.13;59.81;100281.91;4385544;32;19978;-86
2022/04/28 03:56:01;;;;;;;;;;;;;;;15.14;60.31;100287.09;4385732;32;19990;-81
2022/04/28 03:58:28;;;;;;;;;;;;;;;15.04;60.62;100293.16;4385591;32;20304;-85
2022/04/28 04:00:55;;;;;;;;;;;;;;;15.05;60.47;100289.66;4385395;32;19997;-83
2022/04/28 04:03:23;;;;;;;;;;;;;;;15.11;60.28;100294.91;4198819;32;20061;-85
2022/04/28 04:05:50;;;;;;;;;;;;;;;15.10;60.51;100298.41;4309967;32;19974;-86
2022/04/28 04:08:17;;;;;;;;;;;;;;;15.16;60.31;100298.44;4374243;32;20034;-86
2022/04/28 04:10:47;;;;;;;;;;;;;;;15.04;60.63;100293.16;4386629;32;19997;-83
2022/04/28 04:13:15;;;;;;;;;;;;;;;15.14;60.22;100299.28;4392032;32;19998;-85
2022/04/28 04:15:44;;;;;;;;;;;;;;;15.04;60.39;100298.37;4400164;32;19982;-87
2022/04/28 04:18:12;;;;;;;;;;;;;;;15.11;60.31;100294.91;4382804;32;19986;-84
2022/04/28 04:20:40;;;;;;;;;;;;;;;15.01;60.75;100299.22;4396052;32;19982;-85
2022/04/28 04:23:08;;;;;;;;;;;;;;;15.07;60.40;100298.37;4369997;32;20269;-86
2022/04/28 04:25:35;;;;;;;;;;;;;;;15.20;59.99;100310.59;4364223;32;20002;-86
2022/04/28 04:28:02;;;;;;;;;;;;;;;15.27;59.84;100309.75;4392324;32;20094;-85
2022/04/28 04:33:16;;;;;;;;;;;;;;;15.25;60.12;100308.00;4369947;32;20744;-88
2022/04/28 04:35:43;;;;;;;;;;;;;;;15.27;60.02;100301.06;4376532;32;19982;-86
2022/04/28 04:38:10;;;;;;;;;;;;;;;15.28;59.87;100303.69;4372108;32;19979;-85
2022/04/28 04:40:37;;;;;;;;;;;;;;;15.15;59.98;100296.66;4369649;32;20038;-90
2022/04/28 04:43:05;;;;;;;;;;;;;;;15.21;59.75;100306.25;4368226;32;20033;-88
2022/04/28 04:45:32;;;;;;;;;;;;;;;15.23;59.96;100309.75;4369570;32;19983;-86
2022/04/28 04:48:00;;;;;;;;;;;;;;;15.30;59.99;100311.53;4369214;32;19992;-81
2022/04/28 04:50:28;;;;;;;;;;;;;;;15.21;60.33;100312.34;4369171;32;20720;-79
2022/04/28 04:52:56;;;;;;;;;;;;;;;15.24;60.37;100312.34;4368990;32;20038;-81
2022/04/28 04:55:24;;;;;;;;;;;;;;;15.23;60.40;100308.00;4369159;32;19987;-87
2022/04/28 04:57:51;;;;;;;;;;;;;;;15.12;60.68;100317.50;4367498;32;20017;-89
2022/04/28 05:00:18;;;;;;;;;;;;;;;15.11;60.75;100314.03;4383886;32;20013;-85
2022/04/28 05:02:47;;;;;;;;;;;;;;;15.25;60.39;100319.34;4397198;32;20005;-87
2022/04/28 05:05:16;;;;;;;;;;;;;;;15.21;60.86;100317.56;4397945;32;19983;-86
2022/04/28 05:07:44;;;;;;;;;;;;;;;15.37;60.22;100322.84;4399700;32;19986;-87
2022/04/28 05:10:12;;;;;;;;;;;;;;;15.35;60.29;100321.13;4383367;32;19986;-84
2022/04/28 05:12:38;;;;;;;;;;;;;;;15.50;60.31;100324.63;4374892;32;19979;-88
2022/04/28 05:15:06;;;;;;;;;;;;;;;15.27;61.29;100322.81;4369448;32;19999;-89
2022/04/28 05:17:34;;;;;;;;;;;;;;;15.41;61.03;100325.50;4370991;32;19991;-88
2022/04/28 05:20:02;;;;;;;;;;;;;;;15.49;61.00;100329.00;4352149;32;20042;-85
2022/04/28 05:22:30;;;;;;;;;;;;;;;15.46;61.14;100333.31;4356547;32;19983;-88
2022/04/28 05:25:00;;;;;;;;;;;;;;;15.58;60.53;100333.38;4356828;32;19999;-88
2022/04/28 05:27:29;;;;;;;;;;;;;;;15.61;60.66;100342.97;4363865;32;19995;-84
2022/04/28 05:29:57;;;;;;;;;;;;;;;15.50;61.58;100343.78;4360513;32;20030;-84
2022/04/28 05:32:26;;;;;;;;;;;;;;;15.65;61.04;100344.72;4371692;32;20436;-85
2022/04/28 05:34:55;;;;;;;;;;;;;;;15.74;59.65;100343.03;4370953;32;20002;-85
2022/04/28 05:37:22;;;;;;;;;;;;;;;15.73;59.59;100343.91;4373165;32;20017;-80
2022/04/28 05:39:49;;;;;;;;;;;;;;;15.66;60.10;100352.53;4370062;32;20001;-86
2022/04/28 05:42:16;;;;;;;;;;;;;;;15.70;59.93;100343.91;4368182;32;20745;-83
2022/04/28 05:47:32;;;;;;;;;;;;;;;15.64;60.50;100354.28;4366942;32;19989;-83
2022/04/28 05:49:59;;;;;;;;;;;;;;;15.68;60.18;100355.19;4366647;32;19974;-84
2022/04/28 05:52:26;;;;;;;;;;;;;;;15.70;60.07;100354.34;4398156;32;20032;-80
2022/04/28 05:54:53;;;;;;;;;;;;;;;15.74;59.71;100355.22;4401521;32;19996;-85
2022/04/28 05:57:20;;;;;;;;;;;;;;;15.74;59.70;100360.44;4399670;32;19986;-83
2022/04/28 05:59:47;;;;;;;;;;;;;;;15.86;59.97;100359.59;4391645;32;20065;-84
2022/04/28 06:02:16;;;;;;;;;;;;;;;16.05;59.65;100356.19;4395047;32;19986;-85
2022/04/28 06:04:43;;;;;;;;;;;;;;;16.02;59.89;100361.38;4385796;32;19992;-82
2022/04/28 06:07:15;;;;;;;;;;;;;;;15.90;59.76;100367.44;4385624;32;19990;-82
2022/04/28 06:09:43;;;;;;;;;;;;;;;15.94;59.46;100363.09;4385349;32;20037;-82
2022/04/28 06:12:10;;;;;;;;;;;;;;;15.92;59.83;100359.59;4384643;32;20010;-80
2022/04/28 06:14:39;;;;;;;;;;;;;;;16.02;60.25;100361.38;4386081;32;19983;-83
2022/04/28 06:17:09;;;;;;;;;;;;;;;15.92;61.11;100370.03;4386231;32;20020;-83
2022/04/28 06:19:36;;;;;;;;;;;;;;;16.04;60.41;100370.06;4385051;32;19995;-80
2022/04/28 06:22:19;;;;;;;;;;;;;;;15.86;62.04;100370.91;4385421;32;19983;-81
2022/04/28 06:24:50;;;;;;;;;;;;;;;16.13;60.99;100374.47;4384473;32;20449;-81
2022/04/28 06:27:16;;;;;;;;;;;;;;;16.29;60.87;100371.00;4384159;32;19989;-83
2022/04/28 06:29:46;;;;;;;;;;;;;;;16.38;61.06;100380.59;4385115;32;20046;-82
2022/04/28 06:32:12;;;;;;;;;;;;;;;16.52;60.86;100378.84;4384907;32;19987;-83
2022/04/28 06:34:42;;;;;;;;;;;;;;;16.56;60.49;100384.94;4385684;32;19986;-82
2022/04/28 06:37:10;;;;;;;;;;;;;;;16.47;59.25;100380.63;4386083;32;20005;-82
2022/04/28 06:39:37;;;;;;;;;;;;;;;16.43;59.78;100384.06;4385588;32;19986;-82
2022/04/28 06:42:04;;;;;;;;;;;;;;;16.41;59.95;100381.47;4385649;32;20237;-85
2022/04/28 06:44:43;;;;;;;;;;;;;;;16.62;59.33;100380.59;4384799;32;19991;-83
2022/04/28 06:47:12;;;;;;;;;;;;;;;16.60;58.53;100382.34;4385941;32;19983;-82
2022/04/28 06:49:42;;;;;;;;;;;;;;;16.56;58.37;100388.47;4385296;32;19991;-82
2022/04/28 06:52:10;;;;;;;;;;;;;;;16.68;57.73;100377.13;4385950;32;20082;-83
2022/04/28 06:54:39;;;;;;;;;;;;;;;16.62;57.79;100374.50;4385534;32;20001;-82
2022/04/28 06:57:07;;;;;;;;;;;;;;;16.59;57.95;100380.63;4385518;32;19974;-82
2022/04/28 06:59:36;;;;;;;;;;;;;;;16.61;58.14;100384.09;4385181;32;19990;-82
2022/04/28 07:02:04;;;;;;;;;;;;;;;16.58;58.03;100384.09;4385234;32;19979;-82
2022/04/28 07:04:32;;;;;;;;;;;;;;;16.47;58.32;100381.47;4384781;32;19991;-82
2022/04/28 07:06:59;;;;;;;;;;;;;;;16.46;58.06;100384.06;4384440;32;19974;-84
2022/04/28 07:09:26;;;;;;;;;;;;;;;16.49;57.74;100386.69;4383147;32;19994;-83
2022/04/28 07:12:14;;;;;;;;;;;;;;;16.57;58.45;100384.09;4383078;32;20017;-83
2022/04/28 07:14:43;;;;;;;;;;;;;;;16.42;58.70;100390.19;4383365;32;20004;-81
2022/04/28 07:17:13;;;;;;;;;;;;;;;16.54;58.63;100392.81;4384096;32;20417;-83
2022/04/28 07:19:40;;;;;;;;;;;;;;;16.59;58.64;100384.94;4080825;32;10000701;-83
2022/04/28 07:22:19;;;;;;;;;;;;;;;16.52;59.11;100389.31;4124810;32;20002749;-85
2022/04/28 07:24:46;;;;;;;;;;;;;;;16.66;57.79;100384.97;4382615;32;20016;-85
2022/04/28 07:27:13;;;;;;;;;;;;;;;16.74;57.95;100385.81;4384358;32;20351;-85
2022/04/28 07:29:43;;;;;;;;;;;;;;;16.89;57.65;100399.81;4384546;32;19983;-86
2022/04/28 07:32:10;;;;;;;;;;;;;;;16.77;56.71;100399.81;4383376;32;19987;-86
2022/04/28 07:34:40;;;;;;;;;;;;;;;16.88;55.89;100395.44;4382164;32;19990;-85
2022/04/28 07:37:15;;;;;;;;;;;;;;;16.67;56.40;100405.00;4383763;32;20010;-85
2022/04/28 07:39:46;;;;;;;;;;;;;;;16.72;55.72;100408.50;4384787;32;20077;-86
2022/04/28 07:42:14;;;;;;;;;;;;;;;16.89;55.73;100405.03;4384841;32;20025;-85
2022/04/28 07:44:41;;;;;;;;;;;;;;;16.98;55.12;100399.81;4408535;32;20078;-84
2022/04/28 07:47:10;;;;;;;;;;;;;;;17.13;53.94;100405.03;4385699;32;20362;-86
2022/04/28 07:49:37;;;;;;;;;;;;;;;16.96;55.55;100402.41;4385370;32;19986;-86
2022/04/28 07:52:05;;;;;;;;;;;;;;;17.09;54.79;100403.25;4391628;32;19970;-86
2022/04/28 07:54:35;;;;;;;;;;;;;;;17.22;53.77;100413.72;4385344;32;19999;-86
2022/04/28 07:57:03;;;;;;;;;;;;;;;17.58;53.44;100402.25;4408835;32;19990;-85
2022/04/28 07:59:30;;;;;;;;;;;;;;;17.86;55.41;100408.28;4389852;32;20421;-86
2022/04/28 08:01:57;;;;;;;;;;;;;;;18.31;53.65;100408.91;4372174;32;19974;-84
2022/04/28 08:04:25;;;;;;;;;;;;;;;18.38;53.60;100408.03;4384881;32;20008;-88
2022/04/28 08:07:00;;;;;;;;;;;;;;;19.02;47.46;100406.66;4384729;32;20362;-82
2022/04/28 08:09:28;;;;;;;;;;;;;;;19.08;45.70;100405.72;4396037;32;20113;-80
2022/04/28 08:11:57;;;;;;;;;;;;;;;19.29;42.96;100405.50;4375709;32;20358;-83
2022/04/28 08:14:24;;;;;;;;;;;;;;;19.24;44.47;100415.16;4383546;32;20041;-84
2022/04/28 08:16:52;;;;;;;;;;;;;;;19.74;40.21;100419.03;4385133;32;20042;-85
2022/04/28 08:19:19;;;;;;;;;;;;;;;19.83;38.05;100416.28;4384743;32;19982;-86
2022/04/28 08:21:47;;;;;;;;;;;;;;;19.54;46.41;100421.00;4383484;32;19986;-85
2022/04/28 08:24:14;;;;;;;;;;;;;;;18.91;49.71;100419.84;4396087;32;20406;-85
2022/04/28 08:26:42;;;;;;;;;;;;;;;18.77;52.18;100429.63;4384770;32;20025;-85
2022/04/28 08:29:09;;;;;;;;;;;;;;;19.03;49.69;100425.00;4384534;32;20000;-84
2022/04/28 08:31:43;;;;;;;;;;;;;;;18.83;50.50;100421.69;4408767;32;19988;-86
2022/04/28 08:34:11;;;;;;;;;;;;;;;18.73;51.68;100428.78;4385535;32;19987;-85
2022/04/28 08:36:38;;;;;;;;;;;;;;;19.14;47.56;100426.66;4384277;32;20020;-84
2022/04/28 08:39:05;;;;;;;;;;;;;;;19.24;49.72;100429.19;4385028;32;20321;-84
2022/04/28 08:41:36;;;;;;;;;;;;;;;19.05;51.29;100425.00;4384741;32;20721;-85
2022/04/28 08:44:15;;;;;;;;;;;;;;;19.41;47.80;100426.38;4406562;32;20013;-84
2022/04/28 08:46:51;;;;;;;;;;;;;;;20.08;43.59;100429.12;4378385;32;20402;-81
2022/04/28 08:49:23;;;;;;;;;;;;;;;19.81;45.07;100430.34;4406536;32;20427;-84
2022/04/28 08:51:53;;;;;;;;;;;;;;;19.67;44.67;100435.75;4402809;32;20001;-82
2022/04/28 08:54:20;;;;;;;;;;;;;;;19.66;48.13;100436.66;4386826;32;20038;-84
2022/04/28 08:56:49;;;;;;;;;;;;;;;19.73;46.72;100438.31;4385173;32;19983;-84
2022/04/28 08:59:16;;;;;;;;;;;;;;;19.62;47.69;100445.41;4410301;32;20041;-82
2022/04/28 09:01:43;;;;;;;;;;;;;;;19.54;46.44;100442.00;4387114;32;19997;-80
2022/04/28 09:04:13;;;;;;;;;;;;;;;19.40;47.79;100440.41;4389691;32;19982;-81
2022/04/28 09:06:43;;;;;;;;;;;;;;;19.81;45.29;100441.69;4399517;32;19986;-82
2022/04/28 09:09:13;;;;;;;;;;;;;;;19.55;48.32;100443.75;4401188;32;20004;-81
2022/04/28 09:11:43;;;;;;;;;;;;;;;19.66;47.33;100452.41;4401944;32;19974;-80
2022/04/28 09:14:14;;;;;;;;;;;;;;;19.48;48.42;100449.06;4398978;32;20028;-80
2022/04/28 09:16:42;;;;;;;;;;;;;;;19.49;49.12;100440.28;4402266;32;19982;-80
2022/04/28 09:19:09;;;;;;;;;;;;;;;19.40;49.09;100440.41;4401412;32;19954;-82
2022/04/28 09:21:37;;;;;;;;;;;;;;;19.57;47.67;100441.97;4401254;32;19974;-83
2022/04/28 09:24:04;;;;;;;;;;;;;;;19.52;48.56;100445.50;4402098;32;19981;-82
2022/04/28 09:26:34;;;;;;;;;;;;;;;19.63;46.37;100447.16;4401843;32;19982;-79
2022/04/28 09:29:02;;;;;;;;;;;;;;;19.42;48.68;100438.62;4392826;32;20027;-81
2022/04/28 09:31:32;;;;;;;;;;;;;;;19.32;47.52;100450.09;4392913;32;19994;-82
2022/04/28 09:34:21;;;;;;;;;;;;;;;19.32;48.33;100442.22;4387119;32;20009;-82
2022/04/28 09:36:54;;;;;;;;;;;;;;;19.22;49.82;100445.84;4386231;32;20008;-82
2022/04/28 09:44:55;;;;;;;;;;;;;;;19.58;47.57;100454.22;4386849;32;19979;-80
2022/04/28 09:47:23;;;;;;;;;;;;;;;19.83;47.93;100455.69;4384711;32;20021;-81
2022/04/28 09:49:53;;;;;;;;;;;;;;;19.85;47.07;100464.44;4400590;32;19975;-81
2022/04/28 09:52:23;;;;;;;;;;;;;;;19.57;49.34;100455.97;4408483;32;19990;-81
2022/04/28 09:54:52;;;;;;;;;;;;;;;19.55;46.11;100449.00;4409886;32;20021;-81
2022/04/28 09:57:20;;;;;;;;;;;;;;;19.94;45.56;100448.56;4386581;32;20378;-81
2022/04/28 09:59:49;;;;;;;;;;;;;;;19.94;46.78;100453.84;4377579;32;19994;-81
2022/04/28 10:02:19;;;;;;;;;;;;;;;19.98;44.96;100455.53;4396860;32;19970;-81
2022/04/28 10:04:46;;;;;;;;;;;;;;;19.87;45.45;100457.41;4387713;32;19987;-82
2022/04/28 10:07:16;;;;;;;;;;;;;;;19.95;47.48;100463.44;4401919;32;19988;-81
2022/04/28 10:09:45;;;;;;;;;;;;;;;19.74;46.76;100453.19;4401560;32;19998;-81
2022/04/28 10:12:13;;;;;;;;;;;;;;;20.23;43.29;100454.31;4400742;32;20040;-81
2022/04/28 10:14:41;;;;;;;;;;;;;;;19.59;47.69;100450.69;4400210;32;20036;-82
2022/04/28 10:17:17;;;;;;;;;;;;;;;20.08;42.86;100450.16;4401722;32;19993;-83
2022/04/28 10:19:45;;;;;;;;;;;;;;;20.03;48.16;100451.97;4401579;32;19978;-80
2022/04/28 10:22:16;;;;;;;;;;;;;;;19.88;40.71;100453.91;4397997;32;20000;-80
2022/04/28 10:33:10;;;;;;;;;;;;;;;20.52;37.51;100440.81;4400747;32;19978;-82
2022/04/28 10:35:44;;;;;;;;;;;;;;;20.54;37.85;100439.00;4401768;32;20003;-82
2022/04/28 10:38:21;;;;;;;;;;;;;;;20.51;37.11;100433.75;4401025;32;20029;-81
2022/04/28 10:40:56;;;;;;;;;;;;;;;20.42;39.44;100440.91;4399301;32;19982;-80
2022/04/28 10:43:25;;;;;;;;;;;;;;;20.79;37.37;100450.87;4390083;32;20818;-82
2022/04/28 10:45:54;;;;;;;;;;;;;;;20.84;36.39;100449.06;4406592;32;20035;-80
2022/04/28 10:48:42;;;;;;;;;;;;;;;20.81;35.42;100449.09;4399585;32;20070;-81
2022/04/28 10:51:19;;;;;;;;;;;;;;;20.72;36.68;100449.25;4400797;32;20590;-81
2022/04/28 10:54:14;;;;;;;;;;;;;;;20.79;35.91;100450.87;4393870;32;19986;-81
2022/04/28 10:56:41;;;;;;;;;;;;;;;21.00;36.64;100439.16;4401391;32;19993;-81
2022/04/28 10:59:34;;;;;;;;;;;;;;;20.57;40.22;100457.37;4400816;32;20307;-80
2022/04/28 11:02:15;;;;;;;;;;;;;;;20.73;40.43;100450.97;4399220;32;19991;-82
2022/04/28 11:04:43;;;;;;;;;;;;;;;20.56;43.19;100453.00;4400628;32;20033;-82
2022/04/28 11:07:19;;;;;;;;;;;;;;;20.69;42.08;100453.69;4401373;32;19998;-81
2022/04/28 11:09:50;;;;;;;;;;;;;;;20.87;39.69;100463.94;4401393;32;20706;-81
2022/04/28 11:12:20;;;;;;;;;;;;;;;20.81;40.48;100464.91;4400378;32;20335;-83
2022/04/28 11:14:48;;;;;;;;;;;;;;;20.92;39.83;100461.22;4398719;32;20008;-81
2022/04/28 11:17:17;;;;;;;;;;;;;;;20.87;39.79;100459.53;4400289;32;19993;-81
2022/04/28 11:19:44;;;;;;;;;;;;;;;20.55;41.46;100461.78;4400828;32;20772;-81
2022/04/28 11:22:11;;;;;;;;;;;;;;;20.69;40.61;100459.81;4396956;32;20049;-81
2022/04/28 11:24:42;;;;;;;;;;;;;;;20.65;40.43;100463.41;4400414;32;20328;-81
2022/04/28 11:27:18;;;;;;;;;;;;;;;20.83;37.74;100468.34;4400981;32;19982;-80
2022/04/28 11:29:46;;;;;;;;;;;;;;;20.74;37.36;100473.78;4396152;32;20802;-79
2022/04/28 11:32:14;;;;;;;;;;;;;;;20.79;38.72;100471.06;4393308;32;20001;-81
2022/04/28 11:34:44;;;;;;;;;;;;;;;20.50;41.75;100479.38;4386285;32;20041;-80
2022/04/28 11:37:11;;;;;;;;;;;;;;;20.79;39.65;100471.06;4384104;32;19990;-80
2022/04/28 11:39:40;;;;;;;;;;;;;;;20.69;39.28;100474.75;4383839;32;19983;-80
2022/04/28 11:42:09;;;;;;;;;;;;;;;20.39;41.04;100472.50;4384103;32;19977;-81
2022/04/28 11:44:43;;;;;;;;;;;;;;;20.96;38.28;100478.69;4382053;32;19996;-81
2022/04/28 11:47:10;;;;;;;;;;;;;;;20.94;38.52;100475.22;4380946;32;19986;-78
2022/04/28 11:49:40;;;;;;;;;;;;;;;20.68;41.09;100479.12;4368824;32;19982;-89
2022/04/28 11:52:17;;;;;;;;;;;;;;;20.71;39.71;100472.94;4400048;32;20025;-87
2022/04/28 11:54:44;;;;;;;;;;;;;;;20.81;39.54;100485.06;4399818;32;19986;-89
2022/04/28 11:57:11;;;;;;;;;;;;;;;21.18;37.94;100477.44;4400639;32;20001;-80
2022/04/28 11:59:38;;;;;;;;;;;;;;;21.27;36.18;100479.91;4401141;32;20415;-89
2022/04/28 12:02:25;;;;;;;;;;;;;;;21.13;37.18;100481.91;4400911;32;19978;-86
2022/04/28 12:04:52;;;;;;;;;;;;;;;20.89;38.18;100478.78;4401056;32;19974;-92
2022/04/28 12:07:20;;;;;;;;;;;;;;;21.15;36.54;100480.09;4404703;32;20318;-91
2022/04/28 12:15:18;;;;;;;;;;;;;;;20.85;39.17;100477.09;4397374;32;19994;-86
2022/04/28 12:20:56;;;;;;;;;;;;;;;20.95;40.87;100477.81;4399407;32;20041;-80
2022/04/28 12:23:32;;;;;;;;;;;;;;;21.05;37.63;100478.53;4410659;32;19997;-80
2022/04/28 12:26:00;;;;;;;;;;;;;;;21.23;37.63;100467.69;4396668;32;20955;-84
2022/04/28 12:28:34;;;;;;;;;;;;;;;21.27;37.61;100471.13;4398982;32;19994;-83
2022/04/28 12:31:04;;;;;;;;;;;;;;;21.39;36.32;100473.59;4399016;32;19996;-85
2022/04/28 12:33:50;;;;;;;;;;;;;;;21.25;36.10;100465.91;4398950;32;20040;-85
2022/04/28 12:36:17;;;;;;;;;;;;;;;21.41;35.94;100463.00;4399278;32;20026;-81
2022/04/28 12:38:45;;;;;;;;;;;;;;;21.31;35.37;100464.91;4386046;32;19994;-81
2022/04/28 12:41:16;;;;;;;;;;;;;;;21.25;35.47;100465.91;4401561;32;20328;-81
2022/04/28 12:43:49;;;;;;;;;;;;;;;21.41;34.58;100470.91;4394442;32;20104;-81
2022/04/28 12:46:20;;;;;;;;;;;;;;;21.28;35.44;100464.97;4395383;32;20020;-80
2022/04/28 12:48:54;;;;;;;;;;;;;;;21.42;36.18;100468.25;4396372;32;19994;-79
2022/04/28 12:51:28;;;;;;;;;;;;;;;21.48;36.96;100473.44;4397773;32;20331;-80
2022/04/28 12:53:55;;;;;;;;;;;;;;;21.68;35.42;100464.28;4398489;32;20004;-84
2022/04/28 12:56:29;;;;;;;;;;;;;;;21.73;35.12;100468.56;4395405;32;19977;-92
2022/04/28 12:58:57;;;;;;;;;;;;;;;21.42;33.48;100470.03;4408428;32;20442;-85
2022/04/28 13:01:24;;;;;;;;;;;;;;;21.37;34.53;100465.69;4390865;32;20323;-88
2022/04/28 13:03:56;;;;;;;;;;;;;;;21.65;33.49;100464.31;4384609;32;20333;-90
2022/04/28 13:06:24;;;;;;;;;;;;;;;21.68;34.26;100462.50;4397650;32;20300;-89
2022/04/28 13:08:51;;;;;;;;;;;;;;;21.55;35.08;100458.38;4398423;32;20046;-90
2022/04/28 13:11:18;;;;;;;;;;;;;;;21.59;35.24;100465.31;4394922;32;19992;-88
2022/04/28 13:13:46;;;;;;;;;;;;;;;21.78;36.86;100471.09;4397972;32;20013;-87
2022/04/28 13:16:12;;;;;;;;;;;;;;;21.93;35.47;100469.94;4399186;32;19978;-92
2022/04/28 13:18:39;;;;;;;;;;;;;;;22.18;33.79;100470.31;4399483;32;19979;-90
2022/04/28 13:21:07;;;;;;;;;;;;;;;21.67;36.14;100468.69;4399310;32;20012;-90
2022/04/28 13:23:34;;;;;;;;;;;;;;;22.11;32.17;100468.66;4399714;32;19986;-87
2022/04/28 13:26:01;;;;;;;;;;;;;;;22.19;31.91;100467.63;4398163;32;20345;-87
2022/04/28 13:28:28;;;;;;;;;;;;;;;21.87;33.48;100464.78;4399998;32;20005;-86